Aeroporto :
LOGIN :

Iscrizione | Disclaimer

   EN    FR    IT 

 










Sommario :    VFR   VFR Marginale   IFR   IFR Intensivo   IFR Molto Intensivo
Visibilità : 
Base nubi : 
>= 8 km
>= 3000ft
5 / 8 km
1000 / 3000 ft
1500m / 5 km
500 / 1000 ft
800 / 1500m
200 / 500 ft
< 800m
< 200 ft
Simboli :   Temporali  Nebbia  Neve Forte  Precipitazioni Forti  Vento > 20 kt
SIGMETs :   Varie  Temporali  Ghiacco  Turbolenza  Onda orograficha  Ceneri Vulcaniche






- Altitudine del aeroporto : 15 ft
- Codice IATA : FCO


LIRF - Roma Leonardo da Vinci Fiumicino

ULTIMO METAR :
  • 272020Z 23015KT 9999 -RA FEW025 SCT040 13/09 Q1011 NOSIG

METARs OBSOLETI :
  • 271950Z 25013KT 9999 -RA FEW025 SCT050 12/08 Q1011 NOSIG
  • 271920Z 26014KT 9999 -DZ SCT025 13/08 Q1012 NOSIG
  • 271850Z 27013KT 9999 SCT025 13/08 Q1012 NOSIG
  • 271820Z 18004KT 150V210 9999 SCT030 12/04 Q1012 NOSIG
  • 271750Z 18003KT 150V230 CAVOK 12/03 Q1012 NOSIG

TAF TAF LIRF
Valido dal 27 a 18 ore il 29 a 00 ore UTC


271700Z 2718/2824 24016KT 9999 SCT030
TEMPO 2719/2803 27018G28KT 4000 SHRA
BECMG 2803/2805 01015KT



MetMap, La meteo Aeronautica in un colpo d'occhio ! - Copyright ORBIFLY Dicembre 2007 - Disclaimer

ORBIFLY MET'MAP TEAM :

Programmazione e sviluppo : Alexandra Zaïnal
Concezione : Baudouin d'Aumeries
Aiuto per la programmazione : Marc-Olivier Méhu
Supporto tecnico e logistico : Manuel Goepfert
Aiuto per la traduzione : Arnaldo La Scala

Contatto : metmap@orbifly.com




FONTI E CREDITI :

   NOAA